sensor_id;sensor_type;location;lat;lon;timestamp;pressure;altitude;pressure_sealevel;temperature;humidity
55217;BME280;41086;46.736;15.666;2023-01-30T00:01:16;98912.81;;;-2.44;100.00
55217;BME280;41086;46.736;15.666;2023-01-30T00:03:43;98913.56;;;-2.34;100.00
55217;BME280;41086;46.736;15.666;2023-01-30T00:06:10;98928.25;;;-2.30;100.00
55217;BME280;41086;46.736;15.666;2023-01-30T00:08:37;98918.75;;;-2.33;100.00
55217;BME280;41086;46.736;15.666;2023-01-30T00:11:05;98909.22;;;-2.34;100.00
55217;BME280;41086;46.736;15.666;2023-01-30T00:13:32;98902.31;;;-2.36;100.00
55217;BME280;41086;46.736;15.666;2023-01-30T00:15:59;98872.19;;;-2.51;100.00
55217;BME280;41086;46.736;15.666;2023-01-30T00:18:26;98903.25;;;-2.40;100.00
55217;BME280;41086;46.736;15.666;2023-01-30T00:20:58;98901.53;;;-2.41;100.00
55217;BME280;41086;46.736;15.666;2023-01-30T00:23:26;98874.91;;;-2.62;100.00
55217;BME280;41086;46.736;15.666;2023-01-30T00:25:53;98906.75;;;-2.46;100.00
55217;BME280;41086;46.736;15.666;2023-01-30T00:28:20;98878.34;;;-2.61;100.00
55217;BME280;41086;46.736;15.666;2023-01-30T00:30:51;98886.06;;;-2.52;100.00
55217;BME280;41086;46.736;15.666;2023-01-30T00:33:20;98886.97;;;-2.55;100.00
55217;BME280;41086;46.736;15.666;2023-01-30T00:35:51;98894.75;;;-2.55;100.00
55217;BME280;41086;46.736;15.666;2023-01-30T00:38:19;98877.50;;;-2.60;100.00
55217;BME280;41086;46.736;15.666;2023-01-30T00:40:47;98880.91;;;-2.58;100.00
55217;BME280;41086;46.736;15.666;2023-01-30T00:43:17;98879.19;;;-2.61;100.00
55217;BME280;41086;46.736;15.666;2023-01-30T00:46:04;98878.38;;;-2.63;100.00
55217;BME280;41086;46.736;15.666;2023-01-30T00:48:53;98855.09;;;-2.72;100.00
55217;BME280;41086;46.736;15.666;2023-01-30T00:51:20;98865.41;;;-2.64;100.00
55217;BME280;41086;46.736;15.666;2023-01-30T00:53:47;98872.34;;;-2.65;100.00
55217;BME280;41086;46.736;15.666;2023-01-30T00:56:14;98855.97;;;-2.73;100.00
55217;BME280;41086;46.736;15.666;2023-01-30T00:58:41;98861.97;;;-2.67;100.00
55217;BME280;41086;46.736;15.666;2023-01-30T01:01:10;98862.91;;;-2.74;100.00
55217;BME280;41086;46.736;15.666;2023-01-30T01:03:36;98861.16;;;-2.73;100.00
55217;BME280;41086;46.736;15.666;2023-01-30T01:06:03;98859.50;;;-2.79;100.00
55217;BME280;41086;46.736;15.666;2023-01-30T01:08:30;98864.72;;;-2.82;100.00
55217;BME280;41086;46.736;15.666;2023-01-30T01:10:57;98871.66;;;-2.88;100.00
55217;BME280;41086;46.736;15.666;2023-01-30T01:13:24;98872.56;;;-2.91;100.00
55217;BME280;41086;46.736;15.666;2023-01-30T01:15:51;98839.88;;;-3.09;100.00
55217;BME280;41086;46.736;15.666;2023-01-30T01:18:18;98847.59;;;-3.04;100.00
55217;BME280;41086;46.736;15.666;2023-01-30T01:20:45;98836.41;;;-3.13;100.00
55217;BME280;41086;46.736;15.666;2023-01-30T01:23:12;98866.53;;;-2.95;100.00
55217;BME280;41086;46.736;15.666;2023-01-30T01:25:39;98854.44;;;-2.93;100.00
55217;BME280;41086;46.736;15.666;2023-01-30T01:28:06;98849.22;;;-2.91;100.00
55217;BME280;41086;46.736;15.666;2023-01-30T01:30:34;98839.78;;;-2.98;100.00
55217;BME280;41086;46.736;15.666;2023-01-30T01:33:01;98847.50;;;-2.92;100.00
55217;BME280;41086;46.736;15.666;2023-01-30T01:35:27;98823.44;;;-3.08;100.00
55217;BME280;41086;46.736;15.666;2023-01-30T01:37:55;98835.47;;;-3.02;100.00
55217;BME280;41086;46.736;15.666;2023-01-30T01:40:22;98850.16;;;-3.00;100.00
55217;BME280;41086;46.736;15.666;2023-01-30T01:43:16;98846.72;;;-3.05;100.00
55217;BME280;41086;46.736;15.666;2023-01-30T01:45:46;98833.91;;;-3.20;100.00
55217;BME280;41086;46.736;15.666;2023-01-30T01:51:21;98831.22;;;-3.09;100.00
55217;BME280;41086;46.736;15.666;2023-01-30T01:53:56;98825.13;;;-3.04;100.00
55217;BME280;41086;46.736;15.666;2023-01-30T01:56:26;98826.84;;;-3.04;100.00
55217;BME280;41086;46.736;15.666;2023-01-30T01:58:54;98827.72;;;-3.04;100.00
55217;BME280;41086;46.736;15.666;2023-01-30T02:01:22;98799.31;;;-3.21;100.00
55217;BME280;41086;46.736;15.666;2023-01-30T02:03:55;98815.69;;;-3.11;100.00
55217;BME280;41086;46.736;15.666;2023-01-30T02:06:23;98798.41;;;-3.15;100.00
55217;BME280;41086;46.736;15.666;2023-01-30T02:08:53;98784.66;;;-3.22;100.00
55217;BME280;41086;46.736;15.666;2023-01-30T02:14:03;98801.81;;;-3.05;100.00
55217;BME280;41086;46.736;15.666;2023-01-30T02:16:31;98810.44;;;-3.05;100.00
55217;BME280;41086;46.736;15.666;2023-01-30T02:18:58;98788.06;;;-3.17;100.00
55217;BME280;41086;46.736;15.666;2023-01-30T02:21:47;98800.09;;;-3.09;100.00
55217;BME280;41086;46.736;15.666;2023-01-30T02:28:38;98794.03;;;-3.05;100.00
55217;BME280;41086;46.736;15.666;2023-01-30T02:33:39;98794.97;;;-3.16;100.00
55217;BME280;41086;46.736;15.666;2023-01-30T02:44:16;98782.97;;;-3.27;100.00
55217;BME280;41086;46.736;15.666;2023-01-30T02:46:56;98776.03;;;-3.24;100.00
55217;BME280;41086;46.736;15.666;2023-01-30T02:49:31;98772.56;;;-3.20;100.00
55217;BME280;41086;46.736;15.666;2023-01-30T02:52:01;98772.50;;;-3.14;100.00
55217;BME280;41086;46.736;15.666;2023-01-30T02:54:30;98757.81;;;-3.15;100.00
55217;BME280;41086;46.736;15.666;2023-01-30T02:56:58;98768.97;;;-3.09;100.00
55217;BME280;41086;46.736;15.666;2023-01-30T02:59:34;98756.00;;;-3.08;100.00
55217;BME280;41086;46.736;15.666;2023-01-30T03:02:09;98760.31;;;-3.05;100.00
55217;BME280;41086;46.736;15.666;2023-01-30T03:15:56;98734.34;;;-3.02;100.00
55217;BME280;41086;46.736;15.666;2023-01-30T03:18:25;98725.72;;;-3.04;100.00
55217;BME280;41086;46.736;15.666;2023-01-30T03:20:52;98722.22;;;-3.00;100.00
55217;BME280;41086;46.736;15.666;2023-01-30T03:23:19;98722.22;;;-3.00;100.00
55217;BME280;41086;46.736;15.666;2023-01-30T03:25:46;98719.63;;;-3.02;100.00
55217;BME280;41086;46.736;15.666;2023-01-30T03:28:17;98719.69;;;-3.05;100.00
55217;BME280;41086;46.736;15.666;2023-01-30T03:30:45;98715.41;;;-3.10;100.00
55217;BME280;41086;46.736;15.666;2023-01-30T03:33:12;98696.53;;;-3.22;100.00
55217;BME280;41086;46.736;15.666;2023-01-30T03:35:45;98715.44;;;-3.12;100.00
55217;BME280;41086;46.736;15.666;2023-01-30T03:38:12;98715.44;;;-3.15;100.00
55217;BME280;41086;46.736;15.666;2023-01-30T03:40:40;98663.13;;;-3.52;100.00
55217;BME280;41086;46.736;15.666;2023-01-30T03:43:07;98715.63;;;-3.30;100.00
55217;BME280;41086;46.736;15.666;2023-01-30T03:45:36;98699.34;;;-3.48;100.00
55217;BME280;41086;46.736;15.666;2023-01-30T03:48:04;98713.06;;;-3.33;100.00
55217;BME280;41086;46.736;15.666;2023-01-30T03:50:31;98706.19;;;-3.39;100.00
55217;BME280;41086;46.736;15.666;2023-01-30T03:52:59;98695.91;;;-3.48;100.00
55217;BME280;41086;46.736;15.666;2023-01-30T03:55:25;98709.66;;;-3.40;100.00
55217;BME280;41086;46.736;15.666;2023-01-30T03:57:56;98697.56;;;-3.43;100.00
55217;BME280;41086;46.736;15.666;2023-01-30T04:00:26;98605.59;;;-3.91;100.00
55217;BME280;41086;46.736;15.666;2023-01-30T04:02:55;98693.19;;;-3.35;100.00
55217;BME280;41086;46.736;15.666;2023-01-30T04:05:23;98623.53;;;-3.70;100.00
55217;BME280;41086;46.736;15.666;2023-01-30T04:07:58;98689.72;;;-3.37;100.00
55217;BME280;41086;46.736;15.666;2023-01-30T04:10:25;98694.88;;;-3.30;100.00
55217;BME280;41086;46.736;15.666;2023-01-30T04:12:53;98703.59;;;-3.39;100.00
55217;BME280;41086;46.736;15.666;2023-01-30T04:15:20;98675.19;;;-3.50;100.00
55217;BME280;41086;46.736;15.666;2023-01-30T04:18:00;98676.84;;;-3.43;100.00
55217;BME280;41086;46.736;15.666;2023-01-30T04:20:56;98695.78;;;-3.35;100.00
55217;BME280;41086;46.736;15.666;2023-01-30T04:23:30;98688.84;;;-3.31;100.00
55217;BME280;41086;46.736;15.666;2023-01-30T04:25:57;98654.44;;;-3.48;100.00
55217;BME280;41086;46.736;15.666;2023-01-30T04:28:24;98667.28;;;-3.38;100.00
55217;BME280;41086;46.736;15.666;2023-01-30T04:30:52;98683.63;;;-3.28;100.00
55217;BME280;41086;46.736;15.666;2023-01-30T04:33:37;98676.72;;;-3.29;100.00
55217;BME280;41086;46.736;15.666;2023-01-30T04:36:08;98671.53;;;-3.29;100.00
55217;BME280;41086;46.736;15.666;2023-01-30T04:38:35;98659.47;;;-3.33;100.00
55217;BME280;41086;46.736;15.666;2023-01-30T04:41:04;98666.34;;;-3.27;100.00
55217;BME280;41086;46.736;15.666;2023-01-30T04:43:33;98663.75;;;-3.27;100.00
55217;BME280;41086;46.736;15.666;2023-01-30T04:46:13;98655.09;;;-3.26;100.00
55217;BME280;41086;46.736;15.666;2023-01-30T04:48:42;98658.53;;;-3.26;100.00
55217;BME280;41086;46.736;15.666;2023-01-30T04:51:10;98653.63;;;-3.52;100.00
55217;BME280;41086;46.736;15.666;2023-01-30T04:53:37;98639.84;;;-3.57;100.00
55217;BME280;41086;46.736;15.666;2023-01-30T04:56:04;98638.94;;;-3.53;100.00
55217;BME280;41086;46.736;15.666;2023-01-30T04:58:31;98646.69;;;-3.53;100.00
55217;BME280;41086;46.736;15.666;2023-01-30T05:01:12;98645.81;;;-3.50;100.00
55217;BME280;41086;46.736;15.666;2023-01-30T05:03:39;98598.75;;;-3.97;100.00
55217;BME280;41086;46.736;15.666;2023-01-30T05:06:09;98659.75;;;-3.64;100.00
55217;BME280;41086;46.736;15.666;2023-01-30T05:08:37;98652.03;;;-3.68;100.00
55217;BME280;41086;46.736;15.666;2023-01-30T05:11:05;98658.13;;;-3.74;100.00
55217;BME280;41086;46.736;15.666;2023-01-30T05:13:32;98645.13;;;-3.66;100.00
55217;BME280;41086;46.736;15.666;2023-01-30T05:15:58;98638.22;;;-3.66;100.00
55217;BME280;41086;46.736;15.666;2023-01-30T05:18:25;98631.28;;;-3.67;100.00
55217;BME280;41086;46.736;15.666;2023-01-30T05:20:52;98636.44;;;-3.61;100.00
55217;BME280;41086;46.736;15.666;2023-01-30T05:23:18;98628.66;;;-3.61;100.00
55217;BME280;41086;46.736;15.666;2023-01-30T05:25:45;98612.34;;;-3.69;100.00
55217;BME280;41086;46.736;15.666;2023-01-30T05:28:12;98617.44;;;-3.63;100.00
55217;BME280;41086;46.736;15.666;2023-01-30T05:30:39;98643.38;;;-3.67;100.00
55217;BME280;41086;46.736;15.666;2023-01-30T05:33:06;98640.03;;;-3.79;100.00
55217;BME280;41086;46.736;15.666;2023-01-30T05:35:32;98633.16;;;-3.81;100.00
55217;BME280;41086;46.736;15.666;2023-01-30T05:37:59;98616.91;;;-3.98;100.00
55217;BME280;41086;46.736;15.666;2023-01-30T05:40:27;98623.72;;;-3.91;100.00
55217;BME280;41086;46.736;15.666;2023-01-30T05:42:54;98605.72;;;-4.04;100.00
55217;BME280;41086;46.736;15.666;2023-01-30T05:45:21;98602.19;;;-3.96;100.00
55217;BME280;41086;46.736;15.666;2023-01-30T05:47:51;98616.78;;;-3.85;100.00
55217;BME280;41086;46.736;15.666;2023-01-30T05:50:22;98609.91;;;-3.89;100.00
55217;BME280;41086;46.736;15.666;2023-01-30T05:52:48;98596.03;;;-3.83;100.00
55217;BME280;41086;46.736;15.666;2023-01-30T05:55:15;98590.03;;;-3.87;100.00
55217;BME280;41086;46.736;15.666;2023-01-30T05:57:42;98608.03;;;-3.73;100.00
55217;BME280;41086;46.736;15.666;2023-01-30T06:00:09;98605.44;;;-3.71;100.00
55217;BME280;41086;46.736;15.666;2023-01-30T06:02:39;98599.47;;;-3.81;100.00
55217;BME280;41086;46.736;15.666;2023-01-30T06:05:06;98595.13;;;-3.78;100.00
55217;BME280;41086;46.736;15.666;2023-01-30T06:07:33;98597.75;;;-3.81;100.00
55217;BME280;41086;46.736;15.666;2023-01-30T06:10:00;98573.09;;;-4.23;100.00
55217;BME280;41086;46.736;15.666;2023-01-30T06:12:27;98592.03;;;-4.15;100.00
55217;BME280;41086;46.736;15.666;2023-01-30T06:14:53;98579.09;;;-4.19;100.00
55217;BME280;41086;46.736;15.666;2023-01-30T06:17:20;98572.28;;;-4.28;100.00
55217;BME280;41086;46.736;15.666;2023-01-30T06:19:47;98561.94;;;-4.30;100.00
55217;BME280;41086;46.736;15.666;2023-01-30T06:22:14;98570.50;;;-4.25;100.00
55217;BME280;41086;46.736;15.666;2023-01-30T06:24:40;98567.94;;;-4.23;100.00
55217;BME280;41086;46.736;15.666;2023-01-30T06:27:07;98563.47;;;-4.10;100.00
55217;BME280;41086;46.736;15.666;2023-01-30T06:29:34;98561.78;;;-4.11;100.00
55217;BME280;41086;46.736;15.666;2023-01-30T06:32:01;98548.06;;;-4.24;100.00
55217;BME280;41086;46.736;15.666;2023-01-30T06:34:28;98556.66;;;-4.17;100.00
55217;BME280;41086;46.736;15.666;2023-01-30T06:36:54;98560.00;;;-4.08;100.00
55217;BME280;41086;46.736;15.666;2023-01-30T06:39:21;98571.25;;;-4.09;100.00
55217;BME280;41086;46.736;15.666;2023-01-30T06:41:48;98556.63;;;-4.16;100.00
55217;BME280;41086;46.736;15.666;2023-01-30T06:44:15;98579.88;;;-4.08;100.00
55217;BME280;41086;46.736;15.666;2023-01-30T06:46:42;98581.47;;;-3.96;100.00
55217;BME280;41086;46.736;15.666;2023-01-30T06:49:08;98562.53;;;-3.98;100.00
55217;BME280;41086;46.736;15.666;2023-01-30T06:51:35;98557.31;;;-3.97;100.00
55217;BME280;41086;46.736;15.666;2023-01-30T06:54:02;98566.72;;;-3.85;100.00
55217;BME280;41086;46.736;15.666;2023-01-30T06:56:29;98564.06;;;-3.79;100.00
55217;BME280;41086;46.736;15.666;2023-01-30T06:58:56;98568.31;;;-3.70;100.00
55217;BME280;41086;46.736;15.666;2023-01-30T07:01:22;98569.22;;;-3.74;100.00
55217;BME280;41086;46.736;15.666;2023-01-30T07:03:49;98598.41;;;-3.59;100.00
55217;BME280;41086;46.736;15.666;2023-01-30T07:06:16;98597.56;;;-3.61;100.00
55217;BME280;41086;46.736;15.666;2023-01-30T07:08:43;98592.63;;;-3.85;100.00
55217;BME280;41086;46.736;15.666;2023-01-30T07:11:10;98607.16;;;-3.70;100.00
55217;BME280;41086;46.736;15.666;2023-01-30T07:13:37;98594.94;;;-3.58;100.00
55217;BME280;41086;46.736;15.666;2023-01-30T07:16:04;98587.06;;;-3.47;100.00
55217;BME280;41086;46.736;15.666;2023-01-30T07:18:30;98596.75;;;-3.67;100.00
55217;BME280;41086;46.736;15.666;2023-01-30T07:20:57;98586.38;;;-3.64;100.00
55217;BME280;41086;46.736;15.666;2023-01-30T07:23:24;98584.50;;;-3.51;100.00
55217;BME280;41086;46.736;15.666;2023-01-30T07:25:51;98579.22;;;-3.39;100.00
55217;BME280;41086;46.736;15.666;2023-01-30T07:28:17;98574.00;;;-3.36;100.00
55217;BME280;41086;46.736;15.666;2023-01-30T07:30:44;98589.44;;;-3.25;100.00
55217;BME280;41086;46.736;15.666;2023-01-30T07:33:11;98593.97;;;-3.46;100.00
55217;BME280;41086;46.736;15.666;2023-01-30T07:35:38;98580.84;;;-3.30;100.00
55217;BME280;41086;46.736;15.666;2023-01-30T07:38:05;98566.09;;;-3.25;100.00
55217;BME280;41086;46.736;15.666;2023-01-30T07:40:32;98573.63;;;-3.05;100.00
55217;BME280;41086;46.736;15.666;2023-01-30T07:43:06;98586.72;;;-3.16;100.00
55217;BME280;41086;46.736;15.666;2023-01-30T07:45:39;98588.53;;;-3.23;100.00
55217;BME280;41086;46.736;15.666;2023-01-30T07:48:11;98575.63;;;-3.27;100.00
55217;BME280;41086;46.736;15.666;2023-01-30T07:50:38;98568.63;;;-3.21;100.00
55217;BME280;41086;46.736;15.666;2023-01-30T07:53:06;98559.22;;;-3.28;100.00
55217;BME280;41086;46.736;15.666;2023-01-30T07:55:34;98522.84;;;-3.20;100.00
55217;BME280;41086;46.736;15.666;2023-01-30T07:58:01;98532.91;;;-2.99;100.00
55217;BME280;41086;46.736;15.666;2023-01-30T08:00:28;98536.25;;;-2.91;100.00
55217;BME280;41086;46.736;15.666;2023-01-30T08:02:55;98520.03;;;-3.05;100.00
55217;BME280;41086;46.736;15.666;2023-01-30T08:05:22;98524.44;;;-3.13;100.00
55217;BME280;41086;46.736;15.666;2023-01-30T08:07:49;98538.13;;;-3.00;100.00
55217;BME280;41086;46.736;15.666;2023-01-30T08:10:16;98519.81;;;-2.90;100.00
55217;BME280;41086;46.736;15.666;2023-01-30T08:12:43;98527.78;;;-3.03;100.00
55217;BME280;41086;46.736;15.666;2023-01-30T08:15:10;98516.34;;;-2.87;100.00
55217;BME280;41086;46.736;15.666;2023-01-30T08:17:36;98512.72;;;-2.77;100.00
55217;BME280;41086;46.736;15.666;2023-01-30T08:20:04;98502.22;;;-2.68;100.00
55217;BME280;41086;46.736;15.666;2023-01-30T08:22:31;98489.06;;;-2.58;100.00
55217;BME280;41086;46.736;15.666;2023-01-30T08:24:58;98492.63;;;-2.64;100.00
55217;BME280;41086;46.736;15.666;2023-01-30T08:27:25;98496.16;;;-2.68;100.00
55217;BME280;41086;46.736;15.666;2023-01-30T08:29:51;98490.94;;;-2.67;100.00
55217;BME280;41086;46.736;15.666;2023-01-30T08:32:18;98500.50;;;-2.69;100.00
55217;BME280;41086;46.736;15.666;2023-01-30T08:34:45;98471.25;;;-2.80;100.00
55217;BME280;41086;46.736;15.666;2023-01-30T08:37:12;98472.88;;;-2.74;100.00
55217;BME280;41086;46.736;15.666;2023-01-30T08:39:39;98474.41;;;-2.61;100.00
55217;BME280;41086;46.736;15.666;2023-01-30T08:42:05;98475.13;;;-2.51;100.00
55217;BME280;41086;46.736;15.666;2023-01-30T08:44:32;98463.78;;;-2.46;100.00
55217;BME280;41086;46.736;15.666;2023-01-30T08:46:59;98476.53;;;-2.30;100.00
55217;BME280;41086;46.736;15.666;2023-01-30T08:49:26;98468.25;;;-2.52;100.00
55217;BME280;41086;46.736;15.666;2023-01-30T08:51:52;98484.50;;;-2.41;100.00
55217;BME280;41086;46.736;15.666;2023-01-30T08:54:19;98472.19;;;-2.31;100.00
55217;BME280;41086;46.736;15.666;2023-01-30T08:56:46;98480.81;;;-2.29;100.00
55217;BME280;41086;46.736;15.666;2023-01-30T08:59:13;98455.03;;;-2.38;100.00
55217;BME280;41086;46.736;15.666;2023-01-30T09:01:40;98479.91;;;-2.27;100.00
55217;BME280;41086;46.736;15.666;2023-01-30T09:04:06;98462.88;;;-2.43;100.00
55217;BME280;41086;46.736;15.666;2023-01-30T09:06:33;98479.38;;;-2.46;100.00
55217;BME280;41086;46.736;15.666;2023-01-30T09:09:00;98479.47;;;-2.52;100.00
55217;BME280;41086;46.736;15.666;2023-01-30T09:11:27;98458.53;;;-2.41;100.00
55217;BME280;41086;46.736;15.666;2023-01-30T09:13:53;98448.75;;;-2.27;100.00
55217;BME280;41086;46.736;15.666;2023-01-30T09:16:20;98441.81;;;-2.25;100.00
55217;BME280;41086;46.736;15.666;2023-01-30T09:18:47;98459.66;;;-2.06;100.00
55217;BME280;41086;46.736;15.666;2023-01-30T09:21:14;98464.94;;;-2.11;100.00
55217;BME280;41086;46.736;15.666;2023-01-30T09:23:41;98459.34;;;-1.91;100.00
55217;BME280;41086;46.736;15.666;2023-01-30T09:26:07;98430.38;;;-1.69;100.00
55217;BME280;41086;46.736;15.666;2023-01-30T09:28:34;98438.41;;;-1.38;100.00
55217;BME280;41086;46.736;15.666;2023-01-30T09:31:01;98435.50;;;-1.24;100.00
55217;BME280;41086;46.736;15.666;2023-01-30T09:33:28;98440.97;;;-0.98;100.00
55217;BME280;41086;46.736;15.666;2023-01-30T09:35:55;98441.47;;;-0.82;100.00
55217;BME280;41086;46.736;15.666;2023-01-30T09:38:22;98445.53;;;-0.34;100.00
55217;BME280;41086;46.736;15.666;2023-01-30T09:46:28;98454.19;;;0.93;100.00
55217;BME280;41086;46.736;15.666;2023-01-30T09:54:39;98502.59;;;1.31;100.00
55217;BME280;41086;46.736;15.666;2023-01-30T09:57:11;98503.88;;;1.46;100.00
55217;BME280;41086;46.736;15.666;2023-01-30T10:02:28;98502.22;;;2.23;100.00
55217;BME280;41086;46.736;15.666;2023-01-30T10:04:59;98495.47;;;2.66;100.00
55217;BME280;41086;46.736;15.666;2023-01-30T10:12:42;98477.78;;;3.18;100.00
55217;BME280;41086;46.736;15.666;2023-01-30T10:15:21;98465.41;;;3.66;100.00
55217;BME280;41086;46.736;15.666;2023-01-30T10:26:25;98466.50;;;3.60;100.00
55217;BME280;41086;46.736;15.666;2023-01-30T10:29:00;98461.91;;;3.87;100.00
55217;BME280;41086;46.736;15.666;2023-01-30T10:31:48;98441.91;;;3.85;100.00
55217;BME280;41086;46.736;15.666;2023-01-30T10:34:24;98439.91;;;3.49;100.00
55217;BME280;41086;46.736;15.666;2023-01-30T10:37:16;98436.56;;;2.54;100.00
55217;BME280;41086;46.736;15.666;2023-01-30T10:42:33;98414.97;;;2.00;100.00
55217;BME280;41086;46.736;15.666;2023-01-30T10:45:14;98413.88;;;2.06;100.00
55217;BME280;41086;46.736;15.666;2023-01-30T10:48:15;98417.06;;;2.39;100.00
55217;BME280;41086;46.736;15.666;2023-01-30T10:50:58;98401.84;;;2.96;100.00
55217;BME280;41086;46.736;15.666;2023-01-30T10:54:09;98393.88;;;2.99;100.00
55217;BME280;41086;46.736;15.666;2023-01-30T10:56:50;98388.75;;;2.51;100.00
55217;BME280;41086;46.736;15.666;2023-01-30T11:02:52;98423.94;;;2.65;100.00
55217;BME280;41086;46.736;15.666;2023-01-30T11:08:20;98407.81;;;2.31;100.00
55217;BME280;41086;46.736;15.666;2023-01-30T11:10:49;98403.75;;;2.22;100.00
55217;BME280;41086;46.736;15.666;2023-01-30T11:13:21;98388.31;;;2.14;100.00
55217;BME280;41086;46.736;15.666;2023-01-30T11:15:52;98377.00;;;1.90;100.00
55217;BME280;41086;46.736;15.666;2023-01-30T11:18:21;98380.91;;;1.52;100.00
55217;BME280;41086;46.736;15.666;2023-01-30T11:21:22;98360.69;;;1.32;100.00
55217;BME280;41086;46.736;15.666;2023-01-30T11:24:03;98367.53;;;1.36;100.00
55217;BME280;41086;46.736;15.666;2023-01-30T11:26:33;98360.94;;;1.24;100.00
55217;BME280;41086;46.736;15.666;2023-01-30T11:29:30;98363.75;;;1.45;100.00
55217;BME280;41086;46.736;15.666;2023-01-30T11:32:26;98353.47;;;1.65;100.00
55217;BME280;41086;46.736;15.666;2023-01-30T11:35:17;98342.16;;;1.90;100.00
55217;BME280;41086;46.736;15.666;2023-01-30T11:37:46;98340.81;;;2.03;100.00
55217;BME280;41086;46.736;15.666;2023-01-30T11:40:26;98349.41;;;2.07;100.00
55217;BME280;41086;46.736;15.666;2023-01-30T11:43:11;98294.34;;;1.88;100.00
55217;BME280;41086;46.736;15.666;2023-01-30T11:45:43;98327.63;;;1.83;100.00
55217;BME280;41086;46.736;15.666;2023-01-30T11:48:18;98317.38;;;1.51;100.00
55217;BME280;41086;46.736;15.666;2023-01-30T11:51:08;98307.72;;;1.03;100.00
55217;BME280;41086;46.736;15.666;2023-01-30T11:53:41;98297.09;;;0.81;100.00
55217;BME280;41086;46.736;15.666;2023-01-30T11:56:16;98314.84;;;0.98;100.00
55217;BME280;41086;46.736;15.666;2023-01-30T11:58:53;98321.59;;;0.49;100.00
55217;BME280;41086;46.736;15.666;2023-01-30T12:01:30;98296.44;;;0.18;100.00
55217;BME280;41086;46.736;15.666;2023-01-30T12:03:58;98284.59;;;0.08;100.00
55217;BME280;41086;46.736;15.666;2023-01-30T12:06:35;98279.50;;;0.04;100.00
55217;BME280;41086;46.736;15.666;2023-01-30T12:09:02;98266.78;;;0.22;100.00
55217;BME280;41086;46.736;15.666;2023-01-30T12:14:16;98240.63;;;-0.03;100.00
55217;BME280;41086;46.736;15.666;2023-01-30T12:22:43;98268.41;;;1.82;100.00
55217;BME280;41086;46.736;15.666;2023-01-30T12:26:17;98271.06;;;2.71;100.00
55217;BME280;41086;46.736;15.666;2023-01-30T12:28:59;98257.66;;;3.62;100.00
55217;BME280;41086;46.736;15.666;2023-01-30T12:31:36;98242.91;;;2.98;100.00
55217;BME280;41086;46.736;15.666;2023-01-30T12:34:07;98258.44;;;3.44;100.00
55217;BME280;41086;46.736;15.666;2023-01-30T12:45:25;98228.34;;;4.49;100.00
55217;BME280;41086;46.736;15.666;2023-01-30T12:48:23;98222.63;;;5.11;100.00
55217;BME280;41086;46.736;15.666;2023-01-30T13:23:37;98174.22;;;7.22;99.04
55217;BME280;41086;46.736;15.666;2023-01-30T13:26:10;98193.22;;;7.13;93.67
55217;BME280;41086;46.736;15.666;2023-01-30T13:28:44;98189.47;;;7.17;100.00
55217;BME280;41086;46.736;15.666;2023-01-30T13:31:15;98187.25;;;7.39;98.14
55217;BME280;41086;46.736;15.666;2023-01-30T13:33:46;98167.38;;;7.48;95.87
55217;BME280;41086;46.736;15.666;2023-01-30T13:36:19;98164.28;;;7.55;96.61
55217;BME280;41086;46.736;15.666;2023-01-30T13:39:00;98160.13;;;7.66;95.76
55217;BME280;41086;46.736;15.666;2023-01-30T13:41:30;98165.41;;;7.66;97.44
55217;BME280;41086;46.736;15.666;2023-01-30T13:44:02;98153.81;;;7.68;95.16
55217;BME280;41086;46.736;15.666;2023-01-30T13:46:34;98116.81;;;7.41;94.10
55217;BME280;41086;46.736;15.666;2023-01-30T13:49:22;98173.13;;;7.83;90.87
55217;BME280;41086;46.736;15.666;2023-01-30T13:51:55;98169.63;;;7.83;92.88
55217;BME280;41086;46.736;15.666;2023-01-30T13:57:22;98152.09;;;7.24;96.68
55217;BME280;41086;46.736;15.666;2023-01-30T14:03:19;98101.75;;;7.00;93.78
55217;BME280;41086;46.736;15.666;2023-01-30T14:08:24;98151.44;;;7.78;95.00
55217;BME280;41086;46.736;15.666;2023-01-30T14:10:53;98149.84;;;7.61;92.70
55217;BME280;41086;46.736;15.666;2023-01-30T14:13:22;98142.81;;;7.47;93.07
55217;BME280;41086;46.736;15.666;2023-01-30T14:16:01;98140.06;;;7.49;95.14
55217;BME280;41086;46.736;15.666;2023-01-30T14:18:31;98114.16;;;7.27;95.43
55217;BME280;41086;46.736;15.666;2023-01-30T14:23:37;98125.72;;;7.67;96.31
55217;BME280;41086;46.736;15.666;2023-01-30T14:26:05;98134.44;;;7.55;96.83
55217;BME280;41086;46.736;15.666;2023-01-30T14:31:02;98113.59;;;7.50;96.11
55217;BME280;41086;46.736;15.666;2023-01-30T14:33:34;98132.63;;;7.55;96.35
55217;BME280;41086;46.736;15.666;2023-01-30T14:38:40;98081.97;;;7.22;98.02
55217;BME280;41086;46.736;15.666;2023-01-30T14:43:50;98119.22;;;6.57;98.90
55217;BME280;41086;46.736;15.666;2023-01-30T14:48:55;98168.63;;;5.88;100.00
55217;BME280;41086;46.736;15.666;2023-01-30T14:51:42;98128.41;;;5.86;100.00
55217;BME280;41086;46.736;15.666;2023-01-30T14:59:35;98153.91;;;6.17;100.00
55217;BME280;41086;46.736;15.666;2023-01-30T15:02:20;98139.63;;;6.21;100.00
55217;BME280;41086;46.736;15.666;2023-01-30T15:05:07;98112.19;;;5.46;100.00
55217;BME280;41086;46.736;15.666;2023-01-30T15:07:42;98141.44;;;6.05;100.00
55217;BME280;41086;46.736;15.666;2023-01-30T15:27:16;98138.19;;;4.84;100.00
55217;BME280;41086;46.736;15.666;2023-01-30T15:32:44;98123.16;;;4.17;100.00
55217;BME280;41086;46.736;15.666;2023-01-30T15:37:39;98118.41;;;3.70;100.00
55217;BME280;41086;46.736;15.666;2023-01-30T15:43:05;98128.59;;;3.57;100.00
55217;BME280;41086;46.736;15.666;2023-01-30T15:51:31;98124.78;;;3.06;100.00
55217;BME280;41086;46.736;15.666;2023-01-30T15:54:09;98127.69;;;3.00;100.00
55217;BME280;41086;46.736;15.666;2023-01-30T15:56:39;98147.69;;;3.01;100.00
55217;BME280;41086;46.736;15.666;2023-01-30T15:59:30;98142.25;;;2.85;100.00